Time;durP1;ratioP1;P1;durP2;ratioP2;P2;SDS_P1;SDS_P2;PMS_P1;PMS_P2;Temp;Humidity;BMP_temperature;BMP_pressure;BME280_temperature;BME280_humidity;BME280_pressure;Samples;Min_cycle;Max_cycle;Signal;HPM_P1;HPM_P2
2022/07/24 00:00:52;;;;;;;22.35;17.05;;;;;;;;;;5051581;28;20045;-68
2022/07/24 00:03:18;;;;;;;22.35;16.77;;;;;;;;;;5052455;28;20025;-68
2022/07/24 00:05:44;;;;;;;25.25;17.15;;;;;;;;;;5052452;28;20501;-68
2022/07/24 00:08:10;;;;;;;20.27;17.17;;;;;;;;;;5053105;28;20048;-67
2022/07/24 00:10:37;;;;;;;21.70;17.55;;;;;;;;;;5052492;28;20025;-68
2022/07/24 00:13:03;;;;;;;26.52;17.33;;;;;;;;;;5053279;28;20113;-69
2022/07/24 00:15:30;;;;;;;24.33;18.35;;;;;;;;;;5054331;28;20049;-68
2022/07/24 00:17:56;;;;;;;21.83;17.40;;;;;;;;;;5054978;28;20499;-69
2022/07/24 00:20:22;;;;;;;24.70;18.55;;;;;;;;;;5052676;28;20017;-67
2022/07/24 00:22:49;;;;;;;21.58;18.42;;;;;;;;;;5054132;28;20028;-68
2022/07/24 00:25:15;;;;;;;22.63;18.48;;;;;;;;;;5054603;28;20021;-68
2022/07/24 00:27:41;;;;;;;24.40;19.45;;;;;;;;;;5054518;28;20094;-67
2022/07/24 00:30:07;;;;;;;22.92;19.98;;;;;;;;;;5053235;28;20131;-67
2022/07/24 00:32:33;;;;;;;22.63;18.92;;;;;;;;;;5052939;28;20074;-68
2022/07/24 00:34:59;;;;;;;26.23;19.48;;;;;;;;;;5054741;28;20110;-68
2022/07/24 00:37:27;;;;;;;26.40;19.95;;;;;;;;;;5053411;28;20440;-69
2022/07/24 00:39:53;;;;;;;26.33;20.33;;;;;;;;;;5053370;28;20094;-69
2022/07/24 00:42:19;;;;;;;25.80;20.67;;;;;;;;;;5053968;28;20088;-67
2022/07/24 00:44:45;;;;;;;26.50;20.88;;;;;;;;;;5053878;28;20063;-67
2022/07/24 00:47:11;;;;;;;30.42;21.75;;;;;;;;;;5053325;28;20041;-68
2022/07/24 00:49:37;;;;;;;28.77;22.15;;;;;;;;;;5051558;28;20429;-68
2022/07/24 00:52:03;;;;;;;28.00;21.38;;;;;;;;;;5053310;28;20032;-68
2022/07/24 00:54:29;;;;;;;26.95;20.52;;;;;;;;;;5052991;28;20503;-69
2022/07/24 00:56:55;;;;;;;30.52;21.63;;;;;;;;;;5050418;28;20033;-68
2022/07/24 00:59:22;;;;;;;28.70;21.33;;;;;;;;;;5051605;28;20497;-69
2022/07/24 01:01:48;;;;;;;27.55;22.48;;;;;;;;;;5051724;28;20044;-69
2022/07/24 01:04:14;;;;;;;25.00;21.13;;;;;;;;;;5050287;28;20079;-69
2022/07/24 01:06:41;;;;;;;29.17;22.60;;;;;;;;;;5050793;28;20068;-68
2022/07/24 01:09:07;;;;;;;25.70;21.50;;;;;;;;;;5050539;28;20328;-69
2022/07/24 01:11:33;;;;;;;25.42;20.65;;;;;;;;;;5050654;28;20075;-68
2022/07/24 01:14:00;;;;;;;27.15;21.60;;;;;;;;;;5050333;28;20036;-68
2022/07/24 01:16:26;;;;;;;28.50;21.02;;;;;;;;;;5049891;28;20048;-68
2022/07/24 01:18:52;;;;;;;30.50;20.88;;;;;;;;;;5048793;28;20017;-68
2022/07/24 01:21:18;;;;;;;26.65;21.35;;;;;;;;;;5049773;28;20025;-68
2022/07/24 01:23:44;;;;;;;26.83;20.77;;;;;;;;;;5049687;28;20040;-68
2022/07/24 01:26:10;;;;;;;29.73;22.83;;;;;;;;;;5049315;28;20032;-67
2022/07/24 01:28:36;;;;;;;27.23;20.10;;;;;;;;;;5049718;28;20505;-69
2022/07/24 01:31:02;;;;;;;24.08;19.80;;;;;;;;;;5050290;28;20025;-69
2022/07/24 01:33:28;;;;;;;28.80;20.65;;;;;;;;;;5053817;28;20029;-68
2022/07/24 01:35:54;;;;;;;34.20;22.00;;;;;;;;;;5052665;28;20040;-68
2022/07/24 01:38:21;;;;;;;31.00;22.90;;;;;;;;;;5053598;28;20112;-68
2022/07/24 01:40:47;;;;;;;28.75;23.45;;;;;;;;;;5053956;28;20021;-69
2022/07/24 01:43:13;;;;;;;28.10;22.23;;;;;;;;;;5053780;28;20037;-68
2022/07/24 01:45:39;;;;;;;32.20;22.92;;;;;;;;;;5054139;28;20029;-68
2022/07/24 01:48:05;;;;;;;27.65;23.00;;;;;;;;;;5053797;28;20397;-69
2022/07/24 01:50:31;;;;;;;32.88;24.45;;;;;;;;;;5053898;28;20048;-67
2022/07/24 01:52:57;;;;;;;32.35;24.40;;;;;;;;;;5053549;28;20125;-67
2022/07/24 01:55:23;;;;;;;34.47;25.33;;;;;;;;;;5053967;28;20116;-67
2022/07/24 01:57:49;;;;;;;35.15;25.77;;;;;;;;;;5053760;28;20048;-68
2022/07/24 02:00:16;;;;;;;33.72;26.52;;;;;;;;;;5053420;28;20136;-68
2022/07/24 02:02:43;;;;;;;36.00;26.05;;;;;;;;;;5053590;28;20021;-68
2022/07/24 02:05:09;;;;;;;37.97;25.77;;;;;;;;;;5053312;28;20501;-68
2022/07/24 02:07:35;;;;;;;41.53;26.23;;;;;;;;;;5053227;28;20029;-68
2022/07/24 02:10:01;;;;;;;34.28;25.88;;;;;;;;;;5052916;28;20529;-68
2022/07/24 02:12:27;;;;;;;37.80;27.42;;;;;;;;;;5053164;28;20044;-68
2022/07/24 02:14:53;;;;;;;39.50;28.58;;;;;;;;;;5053026;28;20045;-68
2022/07/24 02:17:19;;;;;;;39.47;29.10;;;;;;;;;;5053002;28;20550;-68
2022/07/24 02:19:45;;;;;;;40.35;30.30;;;;;;;;;;5052858;28;20033;-68
2022/07/24 02:22:11;;;;;;;46.40;32.65;;;;;;;;;;5052642;28;20391;-68
2022/07/24 02:24:37;;;;;;;46.17;31.65;;;;;;;;;;5052710;28;20032;-68
2022/07/24 02:27:03;;;;;;;44.28;31.02;;;;;;;;;;5052865;28;20079;-68
2022/07/24 02:29:29;;;;;;;43.10;31.42;;;;;;;;;;5053032;28;20383;-68
2022/07/24 02:31:55;;;;;;;40.60;31.20;;;;;;;;;;5035155;28;20654;-68
2022/07/24 02:34:22;;;;;;;39.00;29.50;;;;;;;;;;5052720;28;20079;-68
2022/07/24 02:36:48;;;;;;;37.03;29.92;;;;;;;;;;5053108;28;20037;-69
2022/07/24 02:39:14;;;;;;;36.47;29.05;;;;;;;;;;5053219;28;20114;-68
2022/07/24 02:41:40;;;;;;;41.42;28.42;;;;;;;;;;5053207;28;20061;-68
2022/07/24 02:44:06;;;;;;;44.13;30.88;;;;;;;;;;5053078;28;20440;-68
2022/07/24 02:46:32;;;;;;;40.33;28.77;;;;;;;;;;5054052;28;20033;-67
2022/07/24 02:48:58;;;;;;;42.38;30.40;;;;;;;;;;5054015;28;20029;-68
2022/07/24 02:51:24;;;;;;;52.10;35.78;;;;;;;;;;5053902;28;20465;-68
2022/07/24 02:53:50;;;;;;;54.05;37.38;;;;;;;;;;5052171;28;20246;-68
2022/07/24 02:56:16;;;;;;;58.13;40.42;;;;;;;;;;5054465;28;20033;-68
2022/07/24 02:58:42;;;;;;;65.95;42.85;;;;;;;;;;5053005;28;20025;-68
2022/07/24 03:01:08;;;;;;;69.53;43.17;;;;;;;;;;5052936;28;20037;-68
2022/07/24 03:03:34;;;;;;;58.53;41.03;;;;;;;;;;5053970;28;20471;-68
2022/07/24 03:06:00;;;;;;;60.50;41.00;;;;;;;;;;5056371;28;20025;-69
2022/07/24 03:08:26;;;;;;;65.63;43.17;;;;;;;;;;5055128;28;20406;-69
2022/07/24 03:10:52;;;;;;;65.00;43.85;;;;;;;;;;5055567;28;20044;-68
2022/07/24 03:13:18;;;;;;;66.05;43.65;;;;;;;;;;5055582;28;20044;-66
2022/07/24 03:15:44;;;;;;;69.78;45.83;;;;;;;;;;5054761;28;20545;-68
2022/07/24 03:18:10;;;;;;;62.17;44.58;;;;;;;;;;5055561;28;20036;-67
2022/07/24 03:20:36;;;;;;;69.32;46.85;;;;;;;;;;5055565;28;20045;-68
2022/07/24 03:23:02;;;;;;;65.97;45.38;;;;;;;;;;5054670;28;20056;-69
2022/07/24 03:25:28;;;;;;;65.07;44.85;;;;;;;;;;5053339;28;20560;-68
2022/07/24 03:27:54;;;;;;;81.35;43.95;;;;;;;;;;5055222;28;20057;-69
2022/07/24 03:30:21;;;;;;;64.60;43.30;;;;;;;;;;5054891;28;20033;-68
2022/07/24 03:32:47;;;;;;;61.65;40.22;;;;;;;;;;5054090;28;20029;-68
2022/07/24 03:35:13;;;;;;;60.67;40.08;;;;;;;;;;5053819;28;20032;-69
2022/07/24 03:37:39;;;;;;;60.10;40.40;;;;;;;;;;5053507;28;20047;-68
2022/07/24 03:40:05;;;;;;;57.50;37.85;;;;;;;;;;5053323;28;20104;-68
2022/07/24 03:42:32;;;;;;;58.08;39.20;;;;;;;;;;5052428;28;20094;-68
2022/07/24 03:44:58;;;;;;;57.72;38.80;;;;;;;;;;5052631;28;20041;-68
2022/07/24 03:47:24;;;;;;;61.65;38.22;;;;;;;;;;5052705;28;20033;-68
2022/07/24 03:49:49;;;;;;;60.60;38.97;;;;;;;;;;5051920;28;20494;-68
2022/07/24 03:52:16;;;;;;;65.75;40.42;;;;;;;;;;5051372;28;20045;-68
2022/07/24 03:54:42;;;;;;;66.90;41.35;;;;;;;;;;5050408;28;20048;-68
2022/07/24 03:57:08;;;;;;;61.03;40.30;;;;;;;;;;5050936;28;20475;-68
2022/07/24 03:59:34;;;;;;;67.80;41.50;;;;;;;;;;5051333;28;20029;-68
2022/07/24 04:02:00;;;;;;;71.03;42.00;;;;;;;;;;5050810;28;20041;-67
2022/07/24 04:04:26;;;;;;;66.50;40.15;;;;;;;;;;5050643;28;20017;-68
2022/07/24 04:06:52;;;;;;;54.17;38.00;;;;;;;;;;5050897;28;20036;-69
2022/07/24 04:09:18;;;;;;;62.20;38.78;;;;;;;;;;5050868;28;20037;-69
2022/07/24 04:11:46;;;;;;;67.97;40.78;;;;;;;;;;5050854;28;20044;-68
2022/07/24 04:14:12;;;;;;;64.78;41.78;;;;;;;;;;5050510;28;20032;-68
2022/07/24 04:16:38;;;;;;;62.17;39.60;;;;;;;;;;5050731;28;20552;-69
2022/07/24 04:19:04;;;;;;;58.63;37.22;;;;;;;;;;5051506;28;20028;-68
2022/07/24 04:21:30;;;;;;;56.10;34.95;;;;;;;;;;5051106;28;20033;-69
2022/07/24 04:23:56;;;;;;;53.38;33.72;;;;;;;;;;5051108;28;20129;-68
2022/07/24 04:26:23;;;;;;;48.60;33.05;;;;;;;;;;5051274;28;20112;-67
2022/07/24 04:28:49;;;;;;;49.42;31.38;;;;;;;;;;5050910;28;20021;-69
2022/07/24 04:31:15;;;;;;;45.95;29.20;;;;;;;;;;5050880;28;20040;-68
2022/07/24 04:33:41;;;;;;;50.08;30.40;;;;;;;;;;5050482;28;20027;-68
2022/07/24 04:36:07;;;;;;;45.95;28.77;;;;;;;;;;5050824;28;20100;-68
2022/07/24 04:38:34;;;;;;;45.78;30.00;;;;;;;;;;5050867;28;20454;-67
2022/07/24 04:41:00;;;;;;;44.67;27.58;;;;;;;;;;5050759;28;20083;-68
2022/07/24 04:43:26;;;;;;;40.10;25.67;;;;;;;;;;5050601;28;20043;-68
2022/07/24 04:45:52;;;;;;;38.00;24.65;;;;;;;;;;5050477;28;20491;-67
2022/07/24 04:48:18;;;;;;;36.63;23.63;;;;;;;;;;5050406;28;20162;-68
2022/07/24 04:50:44;;;;;;;32.13;22.23;;;;;;;;;;5050577;28;20029;-68
2022/07/24 04:53:10;;;;;;;33.72;21.77;;;;;;;;;;5050669;28;20039;-68
2022/07/24 04:55:36;;;;;;;40.65;21.10;;;;;;;;;;5051004;28;20029;-68
2022/07/24 04:58:02;;;;;;;31.17;20.40;;;;;;;;;;5050432;28;20037;-68
2022/07/24 05:00:28;;;;;;;31.92;21.17;;;;;;;;;;5050718;28;20037;-68
2022/07/24 05:02:54;;;;;;;29.90;19.95;;;;;;;;;;5050995;28;20023;-67
2022/07/24 05:05:20;;;;;;;32.78;21.00;;;;;;;;;;5050449;28;20089;-67
2022/07/24 05:07:46;;;;;;;32.40;21.10;;;;;;;;;;5050587;28;20463;-68
2022/07/24 05:10:12;;;;;;;28.23;20.38;;;;;;;;;;5052463;28;20093;-67
2022/07/24 05:12:38;;;;;;;33.92;20.52;;;;;;;;;;5052531;28;20036;-68
2022/07/24 05:15:05;;;;;;;30.02;20.65;;;;;;;;;;5052303;28;20040;-67
2022/07/24 05:17:31;;;;;;;31.67;19.55;;;;;;;;;;5053742;28;20045;-67
2022/07/24 05:19:57;;;;;;;25.15;17.05;;;;;;;;;;5054297;28;20024;-68
2022/07/24 05:22:23;;;;;;;24.73;16.77;;;;;;;;;;5053957;28;20029;-68
2022/07/24 05:24:49;;;;;;;22.67;15.75;;;;;;;;;;5053231;28;20057;-67
2022/07/24 05:27:15;;;;;;;23.30;13.90;;;;;;;;;;5053971;28;20032;-68
2022/07/24 05:29:41;;;;;;;20.50;12.50;;;;;;;;;;5053570;28;20041;-68
2022/07/24 05:32:07;;;;;;;20.50;12.45;;;;;;;;;;5052791;28;20068;-70
2022/07/24 05:34:33;;;;;;;22.52;12.05;;;;;;;;;;5052766;28;20116;-67
2022/07/24 05:36:59;;;;;;;20.33;10.60;;;;;;;;;;5052612;28;20069;-70
2022/07/24 05:39:25;;;;;;;20.25;12.00;;;;;;;;;;5051300;28;20098;-66
2022/07/24 05:41:51;;;;;;;18.48;10.80;;;;;;;;;;5051691;28;20486;-67
2022/07/24 05:44:17;;;;;;;16.98;10.93;;;;;;;;;;5053219;28;20025;-69
2022/07/24 05:46:43;;;;;;;15.68;10.23;;;;;;;;;;5051492;28;20127;-69
2022/07/24 05:49:09;;;;;;;15.70;10.40;;;;;;;;;;5049019;28;20025;-67
2022/07/24 05:51:35;;;;;;;17.15;10.10;;;;;;;;;;5051447;28;20021;-68
2022/07/24 05:54:02;;;;;;;14.80;9.73;;;;;;;;;;5050862;28;20040;-68
2022/07/24 05:56:28;;;;;;;16.05;9.20;;;;;;;;;;5051019;28;20115;-69
2022/07/24 05:58:54;;;;;;;16.10;9.32;;;;;;;;;;5065203;28;20531;-68
2022/07/24 06:01:20;;;;;;;13.05;8.13;;;;;;;;;;5049372;28;20144;-69
2022/07/24 06:03:46;;;;;;;16.17;8.00;;;;;;;;;;5049765;28;20029;-68
2022/07/24 06:06:12;;;;;;;11.10;7.35;;;;;;;;;;5049947;28;20025;-68
2022/07/24 06:08:38;;;;;;;17.13;8.00;;;;;;;;;;5049813;28;20024;-68
2022/07/24 06:11:05;;;;;;;12.57;7.43;;;;;;;;;;5049369;28;20029;-68
2022/07/24 06:13:31;;;;;;;12.52;6.70;;;;;;;;;;5049815;28;20040;-67
2022/07/24 06:15:57;;;;;;;10.35;6.75;;;;;;;;;;5049317;28;20032;-69
2022/07/24 06:18:23;;;;;;;12.02;6.32;;;;;;;;;;5051941;28;20123;-68
2022/07/24 06:20:49;;;;;;;12.70;6.53;;;;;;;;;;5053132;28;20029;-68
2022/07/24 06:23:15;;;;;;;12.95;6.15;;;;;;;;;;5051973;28;20529;-68
2022/07/24 06:25:41;;;;;;;12.77;5.60;;;;;;;;;;5053338;28;20036;-68
2022/07/24 06:28:07;;;;;;;8.40;5.20;;;;;;;;;;5052946;28;20116;-68
2022/07/24 06:30:33;;;;;;;8.80;5.20;;;;;;;;;;5052419;28;20094;-68
2022/07/24 06:32:59;;;;;;;8.75;5.30;;;;;;;;;;5051735;28;20033;-68
2022/07/24 06:35:26;;;;;;;9.00;4.80;;;;;;;;;;5053102;28;20029;-69
2022/07/24 06:37:53;;;;;;;5.38;4.32;;;;;;;;;;5052759;28;20033;-67
2022/07/24 06:40:19;;;;;;;8.88;4.35;;;;;;;;;;5052432;28;20028;-68
2022/07/24 06:42:46;;;;;;;6.35;4.28;;;;;;;;;;5052591;28;20025;-69
2022/07/24 06:45:13;;;;;;;6.60;4.35;;;;;;;;;;5052366;28;20040;-68
2022/07/24 06:47:39;;;;;;;7.55;4.45;;;;;;;;;;5052793;28;20052;-67
2022/07/24 06:50:05;;;;;;;9.40;4.20;;;;;;;;;;5052012;28;20616;-69
2022/07/24 06:52:31;;;;;;;8.73;4.40;;;;;;;;;;5052880;28;20068;-69
2022/07/24 06:54:57;;;;;;;9.43;3.90;;;;;;;;;;5052700;28;20033;-69
2022/07/24 06:57:25;;;;;;;5.43;3.63;;;;;;;;;;5052117;28;20021;-68
2022/07/24 06:59:52;;;;;;;5.82;3.72;;;;;;;;;;5052434;28;20036;-69
2022/07/24 07:02:18;;;;;;;5.03;3.67;;;;;;;;;;5051349;28;20106;-69
2022/07/24 07:04:44;;;;;;;10.60;3.28;;;;;;;;;;5053540;28;20043;-67
2022/07/24 07:07:10;;;;;;;8.93;3.50;;;;;;;;;;5053492;28;20112;-68
2022/07/24 07:09:36;;;;;;;13.07;3.85;;;;;;;;;;5053915;28;20488;-69
2022/07/24 07:12:03;;;;;;;5.88;3.38;;;;;;;;;;5052671;28;20089;-69
2022/07/24 07:14:29;;;;;;;4.07;3.30;;;;;;;;;;5054614;28;20083;-68
2022/07/24 07:16:55;;;;;;;7.80;3.40;;;;;;;;;;5054006;28;20518;-69
2022/07/24 07:19:21;;;;;;;5.85;3.38;;;;;;;;;;5053788;28;20064;-69
2022/07/24 07:21:47;;;;;;;6.28;3.22;;;;;;;;;;5054321;28;20060;-69
2022/07/24 07:24:13;;;;;;;9.23;3.13;;;;;;;;;;5055884;28;20025;-69
2022/07/24 07:26:39;;;;;;;7.35;3.30;;;;;;;;;;5055264;28;20036;-69
2022/07/24 07:29:05;;;;;;;4.65;2.97;;;;;;;;;;5055473;28;20041;-69
2022/07/24 07:31:31;;;;;;;7.57;3.50;;;;;;;;;;5056461;28;20025;-68
2022/07/24 07:33:57;;;;;;;7.20;3.13;;;;;;;;;;5054785;28;20413;-68
2022/07/24 07:36:24;;;;;;;4.22;2.88;;;;;;;;;;5055947;28;20112;-68
2022/07/24 07:38:50;;;;;;;4.47;3.13;;;;;;;;;;5057280;28;20025;-68
2022/07/24 07:41:19;;;;;;;4.70;3.20;;;;;;;;;;5055227;28;20071;-69
2022/07/24 07:43:45;;;;;;;6.05;3.45;;;;;;;;;;5055625;28;20048;-68
2022/07/24 07:46:11;;;;;;;8.68;3.50;;;;;;;;;;5055726;28;20420;-68
2022/07/24 07:48:36;;;;;;;7.43;3.78;;;;;;;;;;5055322;28;20036;-68
2022/07/24 07:51:03;;;;;;;19.40;4.40;;;;;;;;;;5055484;28;20028;-68
2022/07/24 07:53:29;;;;;;;12.27;3.97;;;;;;;;;;5055420;28;20206;-67
2022/07/24 07:55:54;;;;;;;11.95;4.13;;;;;;;;;;5055821;28;20169;-69
2022/07/24 07:58:22;;;;;;;6.03;4.40;;;;;;;;;;5056079;28;20044;-68
2022/07/24 08:00:48;;;;;;;9.35;4.65;;;;;;;;;;5054771;28;20037;-69
2022/07/24 08:03:14;;;;;;;11.93;4.70;;;;;;;;;;5054066;28;20029;-69
2022/07/24 08:05:40;;;;;;;8.93;5.05;;;;;;;;;;5055220;28;20453;-69
2022/07/24 08:08:06;;;;;;;15.82;4.90;;;;;;;;;;5054711;28;20051;-69
2022/07/24 08:10:32;;;;;;;7.68;4.38;;;;;;;;;;5053263;28;20025;-68
2022/07/24 08:12:58;;;;;;;9.48;4.43;;;;;;;;;;5052652;28;20421;-68
2022/07/24 08:15:25;;;;;;;9.93;4.18;;;;;;;;;;5052316;28;20532;-68
2022/07/24 08:17:52;;;;;;;8.95;4.20;;;;;;;;;;5051706;28;20064;-69
2022/07/24 08:20:19;;;;;;;9.32;4.47;;;;;;;;;;5051246;28;20036;-68
2022/07/24 08:22:45;;;;;;;10.38;4.35;;;;;;;;;;5051037;28;20474;-69
2022/07/24 08:25:11;;;;;;;10.27;4.65;;;;;;;;;;5050894;28;20376;-68
2022/07/24 08:27:38;;;;;;;11.18;4.22;;;;;;;;;;5051119;28;20036;-67
2022/07/24 08:30:08;;;;;;;9.98;4.20;;;;;;;;;;5050697;28;20059;-68
2022/07/24 08:32:34;;;;;;;7.35;3.45;;;;;;;;;;5051543;28;20512;-69
2022/07/24 08:35:00;;;;;;;8.95;3.30;;;;;;;;;;5051021;28;20021;-68
2022/07/24 08:37:26;;;;;;;28.75;4.38;;;;;;;;;;5049973;28;20029;-69
2022/07/24 08:39:54;;;;;;;7.55;3.05;;;;;;;;;;5050815;28;20075;-69
2022/07/24 08:42:20;;;;;;;6.53;3.20;;;;;;;;;;5051409;28;20469;-68
2022/07/24 08:44:46;;;;;;;9.57;3.05;;;;;;;;;;5049613;28;20025;-68
2022/07/24 08:47:13;;;;;;;10.10;3.58;;;;;;;;;;5050825;28;20029;-69
2022/07/24 08:49:40;;;;;;;4.57;3.20;;;;;;;;;;5050305;28;20467;-70
2022/07/24 08:52:08;;;;;;;7.93;3.05;;;;;;;;;;5050241;28;20025;-69
2022/07/24 08:54:35;;;;;;;8.60;3.10;;;;;;;;;;5049090;28;20028;-69
2022/07/24 08:57:01;;;;;;;8.25;3.25;;;;;;;;;;5050706;28;20033;-69
2022/07/24 08:59:27;;;;;;;17.27;3.60;;;;;;;;;;5050223;28;20071;-69
2022/07/24 09:01:53;;;;;;;4.35;2.72;;;;;;;;;;5050035;28;20041;-70
2022/07/24 09:04:31;;;;;;;7.43;2.90;;;;;;;;;;5050401;28;20036;-70
2022/07/24 09:06:58;;;;;;;6.75;3.05;;;;;;;;;;5050372;28;20021;-68
2022/07/24 09:09:24;;;;;;;8.60;3.00;;;;;;;;;;5050109;28;20330;-68
2022/07/24 09:11:51;;;;;;;3.95;2.58;;;;;;;;;;5050170;28;20132;-68
2022/07/24 09:14:29;;;;;;;9.13;3.83;;;;;;;;;;5050083;28;20037;-68
2022/07/24 09:17:02;;;;;;;11.00;2.75;;;;;;;;;;5049981;28;20514;-68
2022/07/24 09:19:28;;;;;;;4.13;2.90;;;;;;;;;;5050265;28;20025;-67
2022/07/24 09:21:54;;;;;;;3.80;2.58;;;;;;;;;;5049992;28;20096;-68
2022/07/24 09:24:21;;;;;;;4.88;2.70;;;;;;;;;;5050298;28;20277;-67
2022/07/24 09:26:48;;;;;;;8.30;2.60;;;;;;;;;;5049939;28;20486;-68
2022/07/24 09:29:15;;;;;;;7.75;2.85;;;;;;;;;;5050293;28;20025;-68
2022/07/24 09:31:54;;;;;;;4.50;2.70;;;;;;;;;;5048546;28;20121;-68
2022/07/24 09:34:21;;;;;;;5.03;2.97;;;;;;;;;;5050425;28;20033;-68
2022/07/24 09:37:00;;;;;;;5.20;2.72;;;;;;;;;;5050185;28;20398;-69
2022/07/24 09:39:27;;;;;;;6.70;2.88;;;;;;;;;;5050337;28;20025;-68
2022/07/24 09:41:55;;;;;;;6.90;2.63;;;;;;;;;;5050437;28;20029;-68
2022/07/24 09:44:25;;;;;;;5.50;2.50;;;;;;;;;;5048884;28;20044;-69
2022/07/24 09:46:59;;;;;;;4.57;2.58;;;;;;;;;;5031696;28;20033;-69
2022/07/24 09:49:25;;;;;;;5.57;3.05;;;;;;;;;;5030966;28;20083;-69
2022/07/24 09:52:03;;;;;;;5.53;3.03;;;;;;;;;;5031752;28;20037;-68
2022/07/24 09:54:43;;;;;;;9.32;2.97;;;;;;;;;;5035352;28;20112;-68
2022/07/24 09:57:28;;;;;;;4.97;3.17;;;;;;;;;;5036168;28;20026;-69
2022/07/24 09:59:56;;;;;;;6.05;3.10;;;;;;;;;;5036611;28;20303;-68
2022/07/24 10:02:24;;;;;;;11.48;3.30;;;;;;;;;;5036694;28;20487;-69
2022/07/24 10:04:51;;;;;;;6.40;2.67;;;;;;;;;;5036637;28;20032;-67
2022/07/24 10:07:18;;;;;;;9.65;3.25;;;;;;;;;;5036713;28;20025;-70
2022/07/24 10:09:46;;;;;;;18.90;3.75;;;;;;;;;;5037204;28;20025;-69
2022/07/24 10:12:17;;;;;;;5.80;3.20;;;;;;;;;;5037572;28;20029;-69
2022/07/24 10:14:46;;;;;;;5.28;3.30;;;;;;;;;;5038670;28;20029;-68
2022/07/24 10:17:13;;;;;;;8.25;2.97;;;;;;;;;;5038103;28;20046;-69
2022/07/24 10:19:49;;;;;;;4.95;3.42;;;;;;;;;;5037202;28;20040;-68
2022/07/24 10:22:19;;;;;;;8.43;3.47;;;;;;;;;;5037160;28;20426;-68
2022/07/24 10:25:04;;;;;;;4.80;2.78;;;;;;;;;;5040797;28;20055;-68
2022/07/24 10:27:31;;;;;;;4.13;2.60;;;;;;;;;;5057505;28;20028;-69
2022/07/24 10:29:59;;;;;;;4.38;3.03;;;;;;;;;;5057578;28;20029;-68
2022/07/24 10:32:26;;;;;;;4.75;2.80;;;;;;;;;;5039651;28;20471;-69
2022/07/24 10:34:54;;;;;;;12.93;3.08;;;;;;;;;;5036300;28;20472;-69
2022/07/24 10:37:39;;;;;;;5.22;2.75;;;;;;;;;;5037046;28;20073;-68
2022/07/24 10:40:21;;;;;;;6.88;2.70;;;;;;;;;;5036599;28;20026;-68
2022/07/24 10:43:08;;;;;;;3.45;2.53;;;;;;;;;;5036912;28;20036;-68
2022/07/24 10:45:35;;;;;;;5.80;2.35;;;;;;;;;;5036390;28;20068;-67
2022/07/24 10:48:20;;;;;;;7.38;2.67;;;;;;;;;;5036543;28;20022;-69
2022/07/24 10:51:02;;;;;;;3.95;2.80;;;;;;;;;;5036759;28;20037;-69
2022/07/24 10:53:30;;;;;;;6.00;2.80;;;;;;;;;;5036866;28;20033;-67
2022/07/24 10:56:15;;;;;;;6.45;2.88;;;;;;;;;;5035928;28;20476;-68
2022/07/24 10:58:55;;;;;;;4.00;2.45;;;;;;;;;;5035279;28;20039;-68
2022/07/24 11:01:32;;;;;;;5.47;2.40;;;;;;;;;;5034336;28;20038;-68
2022/07/24 11:03:59;;;;;;;4.28;2.22;;;;;;;;;;5034323;28;20040;-68
2022/07/24 11:06:39;;;;;;;7.45;2.22;;;;;;;;;;5033419;28;20021;-69
2022/07/24 11:09:05;;;;;;;4.40;2.10;;;;;;;;;;5033511;28;20033;-67
2022/07/24 11:11:31;;;;;;;3.75;2.20;;;;;;;;;;5033408;28;20033;-68
2022/07/24 11:13:57;;;;;;;3.75;2.08;;;;;;;;;;5031816;28;20092;-68
2022/07/24 11:16:27;;;;;;;3.75;2.22;;;;;;;;;;5032876;28;20033;-69
2022/07/24 11:18:53;;;;;;;7.30;2.60;;;;;;;;;;5032925;28;20316;-67
2022/07/24 11:21:29;;;;;;;12.23;2.88;;;;;;;;;;5032805;28;20072;-67
2022/07/24 11:24:14;;;;;;;6.18;2.28;;;;;;;;;;5032939;28;20025;-67
2022/07/24 11:26:49;;;;;;;8.13;2.33;;;;;;;;;;5032337;28;20017;-68
2022/07/24 11:29:23;;;;;;;11.48;2.60;;;;;;;;;;5031825;28;20119;-67
2022/07/24 11:31:51;;;;;;;3.63;2.03;;;;;;;;;;5031747;28;20084;-68
2022/07/24 11:34:17;;;;;;;7.43;2.35;;;;;;;;;;5032083;28;20041;-67
2022/07/24 11:36:50;;;;;;;3.70;2.17;;;;;;;;;;5031718;28;21901;-68
2022/07/24 11:39:18;;;;;;;5.03;2.20;;;;;;;;;;5031876;28;20100;-67
2022/07/24 11:41:55;;;;;;;2.38;1.90;;;;;;;;;;5031709;28;20288;-68
2022/07/24 11:44:30;;;;;;;4.75;2.00;;;;;;;;;;5031683;28;20026;-68
2022/07/24 11:46:57;;;;;;;5.63;2.38;;;;;;;;;;5031781;28;20032;-68
2022/07/24 11:49:24;;;;;;;6.53;2.30;;;;;;;;;;5031930;28;20032;-68
2022/07/24 11:51:51;;;;;;;5.50;2.22;;;;;;;;;;5031725;28;20520;-68
2022/07/24 11:54:25;;;;;;;4.22;2.55;;;;;;;;;;5031615;28;20505;-69
2022/07/24 11:56:55;;;;;;;5.80;2.25;;;;;;;;;;5031652;28;20021;-68
2022/07/24 11:59:25;;;;;;;8.82;2.53;;;;;;;;;;5031333;28;20034;-67
2022/07/24 12:01:51;;;;;;;;;;;;;;;;;;5031376;28;20076;-69
2022/07/24 12:04:21;;;;;;;4.18;2.33;;;;;;;;;;5031618;28;19905;-67
2022/07/24 12:06:47;;;;;;;3.40;2.10;;;;;;;;;;5031437;28;20055;-69
2022/07/24 12:09:13;;;;;;;7.32;1.88;;;;;;;;;;5031342;28;20026;-68
2022/07/24 12:11:39;;;;;;;7.53;2.40;;;;;;;;;;5031222;28;20076;-68
2022/07/24 12:14:06;;;;;;;5.30;1.83;;;;;;;;;;5031803;28;20558;-68
2022/07/24 12:16:32;;;;;;;4.53;2.30;;;;;;;;;;5031236;28;20082;-69
2022/07/24 12:19:18;;;;;;;3.70;2.08;;;;;;;;;;5031722;28;20484;-69
2022/07/24 12:21:45;;;;;;;3.55;2.20;;;;;;;;;;5031512;28;20021;-68
2022/07/24 12:24:11;;;;;;;4.65;2.20;;;;;;;;;;5031774;28;20108;-68
2022/07/24 12:26:50;;;;;;;8.30;2.13;;;;;;;;;;5031447;28;20394;-67
2022/07/24 12:29:16;;;;;;;4.37;1.67;;;;;;;;;;5031676;28;20094;-67
2022/07/24 12:31:42;;;;;;;8.07;2.35;;;;;;;;;;5030319;28;20063;-67
2022/07/24 12:34:09;;;;;;;3.65;2.30;;;;;;;;;;5029904;28;20487;-67
2022/07/24 12:36:36;;;;;;;6.28;1.88;;;;;;;;;;5031073;28;20041;-68
2022/07/24 12:39:04;;;;;;;8.60;1.80;;;;;;;;;;5030708;28;20034;-67
2022/07/24 12:41:30;;;;;;;5.35;2.08;;;;;;;;;;5030863;28;20475;-69
2022/07/24 12:44:01;;;;;;;3.83;1.85;;;;;;;;;;5031061;28;20025;-68
2022/07/24 12:46:27;;;;;;;5.68;2.22;;;;;;;;;;5030745;28;20048;-68
2022/07/24 12:49:00;;;;;;;6.07;2.28;;;;;;;;;;5030681;28;20475;-67
2022/07/24 12:51:27;;;;;;;4.45;2.25;;;;;;;;;;5030704;28;20033;-68
2022/07/24 12:53:54;;;;;;;7.70;2.25;;;;;;;;;;5030639;28;20040;-69
2022/07/24 12:56:20;;;;;;;4.38;2.03;;;;;;;;;;5030691;28;20036;-68
2022/07/24 12:58:54;;;;;;;4.85;2.05;;;;;;;;;;5030819;28;20034;-67
2022/07/24 13:01:20;;;;;;;4.70;1.85;;;;;;;;;;5030245;28;20048;-67
2022/07/24 13:04:02;;;;;;;4.13;1.80;;;;;;;;;;5030583;28;20030;-67
2022/07/24 13:06:32;;;;;;;4.05;2.00;;;;;;;;;;5030438;28;20040;-69
2022/07/24 13:08:58;;;;;;;3.42;1.90;;;;;;;;;;5030533;28;20139;-67
2022/07/24 13:11:24;;;;;;;5.85;1.85;;;;;;;;;;5030268;28;20029;-68
2022/07/24 13:13:50;;;;;;;3.90;2.15;;;;;;;;;;5029268;28;20476;-68
2022/07/24 13:16:16;;;;;;;5.00;2.20;;;;;;;;;;5028966;28;20122;-68
2022/07/24 13:18:42;;;;;;;2.97;2.10;;;;;;;;;;5029058;28;20069;-69
2022/07/24 13:21:08;;;;;;;3.70;2.00;;;;;;;;;;5047427;28;20450;-69
2022/07/24 13:23:34;;;;;;;4.70;1.73;;;;;;;;;;5032392;28;20040;-68
2022/07/24 13:26:00;;;;;;;4.97;2.10;;;;;;;;;;5050248;28;20061;-69
2022/07/24 13:28:26;;;;;;;4.60;1.90;;;;;;;;;;5032501;28;20486;-69
2022/07/24 13:30:52;;;;;;;3.45;1.80;;;;;;;;;;5050503;28;20061;-69
2022/07/24 13:33:18;;;;;;;4.70;2.17;;;;;;;;;;5050277;28;20383;-69
2022/07/24 13:35:44;;;;;;;3.80;1.80;;;;;;;;;;5050921;28;20029;-67
2022/07/24 13:38:10;;;;;;;5.82;2.40;;;;;;;;;;5050321;28;20522;-68
2022/07/24 13:40:36;;;;;;;5.30;2.30;;;;;;;;;;5050652;28;20025;-69
2022/07/24 13:43:02;;;;;;;8.23;2.75;;;;;;;;;;5050217;28;20094;-68
2022/07/24 13:45:28;;;;;;;5.40;2.33;;;;;;;;;;5050604;28;20104;-68
2022/07/24 13:47:54;;;;;;;6.80;2.40;;;;;;;;;;5050280;28;20036;-67
2022/07/24 13:50:20;;;;;;;4.50;2.05;;;;;;;;;;5049948;28;20478;-68
2022/07/24 13:52:46;;;;;;;6.97;1.98;;;;;;;;;;5050094;28;20032;-69
2022/07/24 13:55:12;;;;;;;5.20;1.98;;;;;;;;;;5050153;28;20036;-68
2022/07/24 13:57:38;;;;;;;4.80;2.10;;;;;;;;;;5049890;28;20510;-69
2022/07/24 14:00:05;;;;;;;4.07;2.08;;;;;;;;;;5048630;28;20048;-69
2022/07/24 14:02:31;;;;;;;5.53;2.10;;;;;;;;;;5049109;28;20132;-68
2022/07/24 14:04:57;;;;;;;4.57;2.05;;;;;;;;;;5049923;28;20609;-69
2022/07/24 14:07:23;;;;;;;5.10;2.03;;;;;;;;;;5049704;28;20029;-69
2022/07/24 14:09:49;;;;;;;5.70;2.33;;;;;;;;;;5049538;28;20040;-68
2022/07/24 14:12:14;;;;;;;6.15;2.03;;;;;;;;;;5049564;28;20040;-67
2022/07/24 14:14:42;;;;;;;5.82;2.20;;;;;;;;;;5048505;28;20033;-67
2022/07/24 14:17:08;;;;;;;4.90;2.28;;;;;;;;;;5049662;28;20073;-69
2022/07/24 14:19:34;;;;;;;17.52;3.13;;;;;;;;;;5048843;28;20013;-68
2022/07/24 14:22:00;;;;;;;6.05;2.13;;;;;;;;;;5049666;28;20024;-68
2022/07/24 14:24:26;;;;;;;7.07;2.60;;;;;;;;;;5049824;28;20483;-68
2022/07/24 14:26:52;;;;;;;6.20;2.25;;;;;;;;;;5049875;28;20032;-69
2022/07/24 14:29:18;;;;;;;6.18;2.25;;;;;;;;;;5049456;28;20029;-67
2022/07/24 14:31:45;;;;;;;4.32;2.08;;;;;;;;;;5048683;28;20371;-68